Time;durP1;ratioP1;P1;durP2;ratioP2;P2;SDS_P1;SDS_P2;PMS_P1;PMS_P2;Temp;Humidity;BMP_temperature;BMP_pressure;BME280_temperature;BME280_humidity;BME280_pressure;Samples;Min_cycle;Max_cycle;Signal;HPM_P1;HPM_P2
2022/01/03 00:00:38;;;;;;;6.10;2.60;;;;;;;18.18;60.70;101039.03;4845097;29;20038;-81
2022/01/03 00:03:06;;;;;;;5.50;1.90;;;;;;;18.18;60.67;101054.66;4843569;29;20052;-81
2022/01/03 00:05:32;;;;;;;5.90;2.20;;;;;;;18.20;60.69;101050.28;4828842;29;20115;-81
2022/01/03 00:07:58;;;;;;;6.95;2.10;;;;;;;18.18;60.13;101047.72;4843352;29;20034;-81
2022/01/03 00:10:24;;;;;;;9.23;2.75;;;;;;;18.18;60.52;101052.03;4828728;29;20026;-81
2022/01/03 00:12:50;;;;;;;6.88;2.40;;;;;;;18.18;60.42;101044.22;4828639;29;20070;-78
2022/01/03 00:15:17;;;;;;;5.32;2.00;;;;;;;18.16;60.29;101039.06;4843454;29;20115;-79
2022/01/03 00:17:43;;;;;;;7.22;2.50;;;;;;;18.17;60.24;101037.31;4827797;29;20034;-81
2022/01/03 00:20:11;;;;;;;11.02;2.65;;;;;;;18.16;60.29;101036.44;4812883;29;20553;-81
2022/01/03 00:22:41;;;;;;;7.32;2.13;;;;;;;18.16;60.11;101041.66;4828679;29;20038;-80
2022/01/03 00:25:16;;;;;;;10.00;2.17;;;;;;;18.16;60.09;101038.16;4858868;29;20086;-80
2022/01/03 00:28:04;;;;;;;8.05;2.42;;;;;;;18.16;60.40;101048.59;4844997;29;20033;-81
2022/01/03 00:30:35;;;;;;;7.63;2.50;;;;;;;18.15;60.02;101055.53;4829560;29;20030;-77
2022/01/03 00:33:02;;;;;;;6.43;2.10;;;;;;;18.15;60.49;101060.75;4844910;29;20106;-81
2022/01/03 00:35:28;;;;;;;6.68;2.30;;;;;;;18.14;59.99;101058.16;4813160;29;20416;-79
2022/01/03 00:37:57;;;;;;;7.50;2.50;;;;;;;18.14;60.08;101055.53;4844140;29;20038;-77
2022/01/03 00:40:24;;;;;;;5.43;2.05;;;;;;;18.14;60.22;101058.16;4813696;29;20596;-81
2022/01/03 00:42:50;;;;;;;6.55;2.17;;;;;;;18.14;60.02;101053.84;4829206;29;20042;-81
2022/01/03 00:45:16;;;;;;;10.48;2.15;;;;;;;18.13;59.92;101041.66;4828484;29;20038;-79
2022/01/03 00:47:41;;;;;;;6.82;2.17;;;;;;;18.14;60.41;101055.53;4844325;29;20074;-79
2022/01/03 00:50:11;;;;;;;6.53;2.03;;;;;;;18.12;60.16;101052.97;4813225;29;20565;-78
2022/01/03 00:52:36;;;;;;;6.57;2.28;;;;;;;18.13;60.29;101053.84;4828112;29;20101;-80
2022/01/03 00:55:04;;;;;;;6.35;2.15;;;;;;;18.12;59.74;101047.78;4828845;29;20045;-78
2022/01/03 00:57:39;;;;;;;7.38;2.78;;;;;;;18.12;59.74;101049.47;4828149;29;20145;-78
2022/01/03 01:00:07;;;;;;;5.47;2.03;;;;;;;18.12;60.11;101049.47;4828213;29;20132;-78
2022/01/03 01:02:38;;;;;;;9.15;2.38;;;;;;;18.12;59.68;101052.09;4828225;29;20414;-80
2022/01/03 01:05:05;;;;;;;6.85;2.40;;;;;;;18.12;59.70;101057.28;4828434;29;20033;-78
2022/01/03 01:07:32;;;;;;;6.10;2.40;;;;;;;18.11;60.07;101053.84;4843561;29;20052;-80
2022/01/03 01:10:01;;;;;;;5.50;2.35;;;;;;;18.11;59.99;101052.97;4813065;29;20136;-78
2022/01/03 01:12:29;;;;;;;5.25;2.20;;;;;;;18.11;60.08;101058.19;4827854;29;20370;-78
2022/01/03 01:14:55;;;;;;;5.68;2.10;;;;;;;18.11;60.01;101058.19;4827852;29;20120;-78
2022/01/03 01:17:21;;;;;;;6.38;2.55;;;;;;;18.11;59.85;101060.78;4827429;29;20141;-79
2022/01/03 01:19:47;;;;;;;7.47;2.90;;;;;;;18.09;59.88;101055.59;4828326;29;20042;-78
2022/01/03 01:22:13;;;;;;;5.95;2.38;;;;;;;18.09;59.83;101058.19;4843215;29;20519;-79
2022/01/03 01:24:48;;;;;;;12.60;2.63;;;;;;;18.09;59.68;101058.19;4812412;29;20069;-78
2022/01/03 01:29:58;;;;;;;6.50;2.10;;;;;;;18.08;59.86;101053.88;4844099;29;20065;-78
2022/01/03 01:32:25;;;;;;;7.18;2.28;;;;;;;18.07;59.41;101047.81;4842359;29;20482;-78
2022/01/03 01:34:52;;;;;;;7.72;2.35;;;;;;;18.08;59.86;101061.69;4827466;29;20034;-78
2022/01/03 01:37:22;;;;;;;5.85;2.38;;;;;;;18.07;59.40;101057.34;4827792;29;20053;-78
2022/01/03 01:39:51;;;;;;;5.53;2.20;;;;;;;18.07;59.71;101053.03;4827530;29;20041;-78
2022/01/03 01:42:19;;;;;;;6.82;3.03;;;;;;;18.08;59.31;101064.28;4827350;29;20046;-79
2022/01/03 01:44:55;;;;;;;7.18;2.33;;;;;;;18.07;59.56;101058.22;4858072;29;20498;-79
2022/01/03 01:47:22;;;;;;;5.75;2.20;;;;;;;18.06;59.25;101051.28;4812383;29;20466;-78
2022/01/03 01:49:48;;;;;;;5.72;2.17;;;;;;;18.06;59.15;101053.03;4811942;29;20542;-79
2022/01/03 01:52:19;;;;;;;6.53;2.45;;;;;;;18.06;59.44;101053.03;4842702;29;20042;-77
2022/01/03 01:55:08;;;;;;;7.30;2.38;;;;;;;18.06;58.97;101053.03;4827526;29;20121;-77
2022/01/03 01:58:03;;;;;;;6.63;2.33;;;;;;;18.05;59.66;101057.38;4841634;29;20058;-80
2022/01/03 02:00:32;;;;;;;6.53;2.38;;;;;;;18.06;59.39;101053.03;4857138;29;20038;-78
2022/01/03 02:03:18;;;;;;;6.03;2.15;;;;;;;18.06;58.99;101045.22;4845164;29;20045;-79
2022/01/03 02:05:53;;;;;;;7.03;2.30;;;;;;;18.06;58.83;101060.84;4845857;29;20121;-78
2022/01/03 02:08:27;;;;;;;6.18;2.05;;;;;;;18.06;59.16;101058.22;4830118;29;20056;-79
2022/01/03 02:11:07;;;;;;;6.18;2.10;;;;;;;18.05;59.32;101064.28;4846074;29;20469;-78
2022/01/03 02:13:33;;;;;;;4.80;1.98;;;;;;;18.05;59.15;101061.69;4830591;29;20060;-78
2022/01/03 02:16:05;;;;;;;6.53;2.35;;;;;;;18.04;58.88;101058.22;4830653;29;20041;-79
2022/01/03 02:18:31;;;;;;;7.55;2.40;;;;;;;18.04;58.89;101065.19;4847194;29;20086;-78
2022/01/03 02:20:57;;;;;;;6.40;2.13;;;;;;;18.03;59.06;101060.84;4815042;29;20382;-78
2022/01/03 02:23:23;;;;;;;6.88;2.53;;;;;;;18.02;59.29;101067.78;4830168;29;20038;-79
2022/01/03 02:25:49;;;;;;;5.80;2.20;;;;;;;18.03;58.94;101063.44;4830366;29;20041;-80
2022/01/03 02:28:20;;;;;;;6.82;2.53;;;;;;;18.02;58.94;101064.34;4845625;29;20077;-78
2022/01/03 02:30:46;;;;;;;5.55;2.00;;;;;;;18.03;59.26;101077.34;4846357;29;20038;-78
2022/01/03 02:33:12;;;;;;;6.40;2.20;;;;;;;18.03;59.20;101071.25;4815729;29;20049;-79
2022/01/03 02:35:41;;;;;;;6.55;2.33;;;;;;;18.02;58.43;101082.56;4830883;29;20401;-79
2022/01/03 02:38:08;;;;;;;7.38;2.38;;;;;;;18.02;58.92;101074.75;4830385;29;20114;-80
2022/01/03 02:40:34;;;;;;;5.85;2.08;;;;;;;18.03;58.97;101074.75;4845260;29;20559;-82
2022/01/03 02:42:59;;;;;;;7.10;2.30;;;;;;;18.02;58.64;101072.16;4830183;29;20086;-80
2022/01/03 02:45:26;;;;;;;6.18;2.30;;;;;;;18.01;58.66;101063.47;4814868;29;20041;-79
2022/01/03 02:47:54;;;;;;;7.22;2.08;;;;;;;18.01;58.87;101078.25;4830099;29;20042;-79
2022/01/03 02:50:24;;;;;;;6.28;2.20;;;;;;;18.00;58.82;101066.94;4830044;29;20033;-78
2022/01/03 02:52:49;;;;;;;5.70;2.30;;;;;;;18.01;58.53;101068.69;4845383;29;20129;-79
2022/01/03 02:55:16;;;;;;;7.45;2.80;;;;;;;18.00;58.57;101069.53;4830078;29;20084;-78
2022/01/03 02:57:45;;;;;;;9.20;2.20;;;;;;;17.99;58.79;101064.38;4844885;29;20073;-80
2022/01/03 03:00:15;;;;;;;7.15;2.40;;;;;;;18.01;58.58;101070.44;4829427;29;20513;-79
2022/01/03 03:02:40;;;;;;;7.50;2.28;;;;;;;18.00;58.76;101064.34;4844924;29;20423;-82
2022/01/03 03:05:08;;;;;;;6.28;2.25;;;;;;;18.00;59.07;101061.72;4829666;29;20053;-80
2022/01/03 03:07:34;;;;;;;5.80;2.45;;;;;;;18.00;58.57;101060.88;4845311;29;20121;-80
2022/01/03 03:10:03;;;;;;;6.70;2.10;;;;;;;18.00;58.97;101066.09;4829719;29;20040;-78
2022/01/03 03:12:29;;;;;;;7.32;2.08;;;;;;;17.99;58.96;101048.75;4846257;29;20109;-78
2022/01/03 03:14:54;;;;;;;6.93;2.40;;;;;;;17.99;58.99;101056.56;4828635;29;20061;-78
2022/01/03 03:17:19;;;;;;;5.63;2.08;;;;;;;17.98;58.74;101053.06;4844915;29;20046;-81
2022/01/03 03:19:55;;;;;;;5.22;2.03;;;;;;;17.99;58.77;101056.56;4814133;29;20041;-80
2022/01/03 03:22:26;;;;;;;6.93;2.58;;;;;;;17.98;58.37;101050.47;4844677;29;20037;-78
2022/01/03 03:25:17;;;;;;;6.13;2.13;;;;;;;17.99;58.70;101059.16;4844444;29;20034;-79
2022/01/03 03:27:47;;;;;;;6.07;2.38;;;;;;;17.98;58.25;101052.22;4845734;29;20115;-80
2022/01/03 03:30:26;;;;;;;6.32;2.30;;;;;;;17.97;58.07;101042.69;4828987;29;20397;-79
2022/01/03 03:32:54;;;;;;;7.10;2.25;;;;;;;17.97;58.42;101048.75;4846148;29;20125;-78
2022/01/03 03:35:21;;;;;;;7.30;2.38;;;;;;;17.97;58.29;101050.50;4845996;29;20057;-78
2022/01/03 03:37:46;;;;;;;6.70;2.53;;;;;;;17.95;58.26;101042.69;4828870;29;20535;-80
2022/01/03 03:40:13;;;;;;;5.95;2.20;;;;;;;17.96;58.09;101048.75;4814018;29;20046;-78
2022/01/03 03:42:40;;;;;;;7.47;2.40;;;;;;;17.96;58.51;101040.94;4829552;29;20094;-79
2022/01/03 03:45:05;;;;;;;6.00;2.17;;;;;;;17.96;58.62;101049.59;4814014;29;20042;-80
2022/01/03 03:47:32;;;;;;;5.72;2.05;;;;;;;17.96;58.48;101048.75;4814116;29;20493;-78
2022/01/03 03:49:57;;;;;;;6.72;2.78;;;;;;;17.95;58.21;101045.28;4844087;29;20042;-81
2022/01/03 03:52:22;;;;;;;5.60;2.30;;;;;;;17.95;58.21;101044.44;4828955;29;20034;-79
2022/01/03 03:54:48;;;;;;;6.07;2.40;;;;;;;17.95;58.00;101041.84;4843968;29;20117;-78
2022/01/03 03:57:13;;;;;;;6.70;2.75;;;;;;;17.95;58.28;101041.84;4798846;29;20057;-78
2022/01/03 03:59:39;;;;;;;6.63;2.10;;;;;;;17.94;58.25;101040.94;4798523;29;20054;-79
2022/01/03 04:02:05;;;;;;;7.55;2.55;;;;;;;17.94;58.16;101040.94;4844062;29;20098;-80
2022/01/03 04:04:32;;;;;;;7.85;2.20;;;;;;;17.94;57.79;101040.09;4813391;29;20571;-78
2022/01/03 04:06:57;;;;;;;5.70;2.20;;;;;;;17.94;58.12;101033.13;4810589;29;20069;-78
2022/01/03 04:09:23;;;;;;;7.93;2.47;;;;;;;17.93;58.13;101044.44;4828536;29;20072;-80
2022/01/03 04:11:48;;;;;;;7.43;2.55;;;;;;;17.93;58.48;101039.22;4828547;29;20044;-80
2022/01/03 04:14:14;;;;;;;5.60;2.20;;;;;;;17.93;58.15;101031.41;4797911;29;20046;-79
2022/01/03 04:16:39;;;;;;;6.22;2.40;;;;;;;17.93;58.08;101038.38;4813028;29;20382;-80
2022/01/03 04:19:05;;;;;;;6.45;2.53;;;;;;;17.92;58.14;101029.72;4813104;29;20040;-78
2022/01/03 04:21:31;;;;;;;7.72;2.60;;;;;;;17.93;57.77;101035.78;4843343;29;20056;-79
2022/01/03 04:23:56;;;;;;;6.15;2.40;;;;;;;17.93;58.17;101030.56;4828001;29;20041;-78
2022/01/03 04:26:22;;;;;;;6.93;2.58;;;;;;;17.93;58.10;101036.63;4812583;29;20078;-77
2022/01/03 04:28:47;;;;;;;6.47;2.10;;;;;;;17.93;58.00;101030.56;4843023;29;20070;-80
2022/01/03 04:31:13;;;;;;;7.03;2.50;;;;;;;17.92;58.18;101034.91;4828292;29;20124;-80
2022/01/03 04:33:38;;;;;;;6.70;2.58;;;;;;;17.91;57.81;101040.97;4828106;29;20442;-79
2022/01/03 04:36:04;;;;;;;6.60;2.38;;;;;;;17.90;58.28;101026.25;4827935;29;20493;-77
2022/01/03 04:38:32;;;;;;;7.53;2.67;;;;;;;17.92;57.98;101034.03;4843142;29;20112;-78
2022/01/03 04:40:58;;;;;;;5.32;2.17;;;;;;;17.90;57.80;101034.06;4827556;29;20042;-79
2022/01/03 04:43:24;;;;;;;7.90;2.83;;;;;;;17.89;57.79;101034.91;4812328;29;20494;-79
2022/01/03 04:45:49;;;;;;;5.60;2.35;;;;;;;17.91;58.07;101027.09;4827704;29;20110;-79
2022/01/03 04:48:15;;;;;;;8.20;2.75;;;;;;;17.89;58.00;101027.97;4812670;29;20037;-76
2022/01/03 04:50:40;;;;;;;7.47;2.60;;;;;;;17.89;57.90;101021.91;4827770;29;20030;-75
2022/01/03 04:53:06;;;;;;;7.30;2.70;;;;;;;17.90;57.83;101026.25;4827745;29;20069;-76
2022/01/03 04:55:31;;;;;;;8.60;2.70;;;;;;;17.90;57.88;101028.84;4812559;29;20049;-76
2022/01/03 04:57:56;;;;;;;9.43;3.10;;;;;;;17.90;57.96;101028.84;4844113;29;20061;-76
2022/01/03 05:00:22;;;;;;;7.18;2.70;;;;;;;17.88;57.65;101033.22;4827844;29;20497;-76
2022/01/03 05:02:47;;;;;;;6.93;2.35;;;;;;;17.89;57.65;101027.09;4812391;29;20041;-75
2022/01/03 05:05:13;;;;;;;6.97;2.60;;;;;;;17.89;58.09;101029.72;4827265;29;20439;-75
2022/01/03 05:07:38;;;;;;;7.28;2.38;;;;;;;17.87;58.03;101015.84;4842809;29;20034;-76
2022/01/03 05:10:05;;;;;;;6.88;2.63;;;;;;;17.88;57.63;101022.78;4843801;29;20090;-78
2022/01/03 05:12:30;;;;;;;7.43;2.60;;;;;;;17.86;57.85;101009.78;4827413;29;20096;-76
2022/01/03 05:14:56;;;;;;;7.20;2.67;;;;;;;17.86;58.16;101007.19;4812119;29;20046;-78
2022/01/03 05:17:21;;;;;;;6.72;2.33;;;;;;;17.87;58.19;101013.25;4842584;29;20382;-77
2022/01/03 05:19:46;;;;;;;7.60;2.33;;;;;;;17.87;57.53;101005.44;4842411;29;20098;-77
2022/01/03 05:22:12;;;;;;;6.35;2.58;;;;;;;17.86;58.00;101008.94;4811934;29;20113;-77
2022/01/03 05:24:37;;;;;;;7.90;2.67;;;;;;;17.84;57.58;101003.72;4827584;29;20046;-77
2022/01/03 05:27:05;;;;;;;6.57;2.40;;;;;;;17.85;57.93;101013.25;4827423;29;20030;-78
2022/01/03 05:29:31;;;;;;;7.95;2.92;;;;;;;17.85;57.57;101009.78;4827224;29;20128;-76
2022/01/03 05:31:56;;;;;;;8.98;2.67;;;;;;;17.84;57.55;101003.72;4827164;29;20570;-77
2022/01/03 05:34:22;;;;;;;7.00;2.35;;;;;;;17.84;57.60;101002.88;4811828;29;20042;-77
2022/01/03 05:36:47;;;;;;;5.50;2.25;;;;;;;17.85;57.86;101004.56;4827315;29;20042;-78
2022/01/03 05:39:13;;;;;;;9.10;2.72;;;;;;;17.85;57.34;100994.16;4812467;29;20042;-77
2022/01/03 05:41:38;;;;;;;7.82;2.70;;;;;;;17.84;57.73;100995.91;4828118;29;20125;-76
2022/01/03 05:44:04;;;;;;;8.32;2.90;;;;;;;17.84;57.58;100985.50;4796884;29;20048;-77
2022/01/03 05:46:30;;;;;;;6.35;2.50;;;;;;;17.84;57.78;100993.31;4842640;29;20504;-76
2022/01/03 05:48:55;;;;;;;8.02;2.40;;;;;;;17.83;57.47;100986.38;4843003;29;20042;-78
2022/01/03 05:51:21;;;;;;;9.27;2.90;;;;;;;17.82;57.60;100996.81;4843334;29;20098;-78
2022/01/03 05:53:46;;;;;;;8.23;2.58;;;;;;;17.82;57.68;100986.38;4827987;29;20046;-78
2022/01/03 05:56:12;;;;;;;7.97;2.40;;;;;;;17.82;58.06;100987.25;4829415;29;20049;-78
2022/01/03 05:58:37;;;;;;;8.68;2.78;;;;;;;17.81;57.99;100988.09;4815466;29;20048;-78
2022/01/03 06:01:03;;;;;;;7.13;2.50;;;;;;;17.83;57.87;100986.38;4845751;29;20493;-78
2022/01/03 06:03:34;;;;;;;8.07;2.97;;;;;;;17.82;57.73;100981.19;4830894;29;20101;-77
2022/01/03 06:08:27;;;;;;;6.82;2.70;;;;;;;17.83;57.93;100988.09;4831898;29;20041;-76
2022/01/03 06:10:53;;;;;;;7.32;2.58;;;;;;;17.84;58.04;100987.25;4830705;29;20038;-77
2022/01/03 06:13:18;;;;;;;7.93;2.30;;;;;;;17.84;57.69;100995.06;4861776;29;20042;-75
2022/01/03 06:15:44;;;;;;;6.88;2.50;;;;;;;17.84;58.00;100982.88;4845440;29;20045;-76
2022/01/03 06:18:12;;;;;;;7.72;2.78;;;;;;;17.84;57.82;100985.50;4830376;29;20048;-77
2022/01/03 06:20:40;;;;;;;5.78;2.42;;;;;;;17.84;57.93;100990.69;4845122;29;20038;-76
2022/01/03 06:23:06;;;;;;;7.72;2.75;;;;;;;17.84;58.13;100988.09;4845400;29;20093;-76
2022/01/03 06:25:31;;;;;;;4.70;2.05;;;;;;;17.85;57.96;100986.34;4815238;29;20073;-77
2022/01/03 06:27:56;;;;;;;7.38;2.45;;;;;;;17.85;58.04;100984.59;4829748;29;20073;-76
2022/01/03 06:30:22;;;;;;;8.25;2.80;;;;;;;17.85;57.88;100979.41;4814933;29;20532;-77
2022/01/03 06:32:47;;;;;;;5.70;2.22;;;;;;;17.85;57.85;100974.19;4814869;29;20037;-77
2022/01/03 06:35:13;;;;;;;6.28;2.38;;;;;;;17.85;57.96;100966.38;4845346;29;20098;-78
2022/01/03 06:37:38;;;;;;;6.50;2.40;;;;;;;17.86;57.88;100962.06;4862225;29;20473;-77
2022/01/03 06:40:06;;;;;;;7.90;2.60;;;;;;;17.85;57.99;100958.56;4862279;29;20052;-76
2022/01/03 06:42:32;;;;;;;6.53;2.40;;;;;;;17.85;58.11;100963.78;4815290;29;20467;-77
2022/01/03 06:44:58;;;;;;;6.45;2.50;;;;;;;17.86;57.93;100964.66;4845608;29;20037;-78
2022/01/03 06:47:23;;;;;;;6.28;2.45;;;;;;;17.85;57.97;100960.31;4845476;29;20041;-77
2022/01/03 06:49:49;;;;;;;6.82;3.03;;;;;;;17.85;57.99;100963.78;4864876;29;20049;-76
2022/01/03 06:52:15;;;;;;;6.35;2.58;;;;;;;17.86;57.87;100964.66;4818515;29;20043;-78
2022/01/03 06:54:41;;;;;;;6.05;2.38;;;;;;;17.85;57.72;100958.56;4863938;29;20496;-76
2022/01/03 06:57:06;;;;;;;6.93;2.20;;;;;;;17.86;57.90;100964.66;4848396;29;20058;-78
2022/01/03 06:59:32;;;;;;;7.50;2.80;;;;;;;17.86;58.07;100968.13;4863567;29;20477;-76
2022/01/03 07:01:57;;;;;;;6.88;2.42;;;;;;;17.86;57.91;100962.91;4817488;29;20485;-78
2022/01/03 07:04:23;;;;;;;5.95;2.10;;;;;;;17.86;57.93;100955.09;4848122;29;20041;-77
2022/01/03 07:06:48;;;;;;;5.60;2.38;;;;;;;17.85;57.71;100958.56;4847944;29;20060;-76
2022/01/03 07:09:13;;;;;;;8.35;2.30;;;;;;;17.86;57.88;100959.47;4832706;29;20409;-76
2022/01/03 07:11:39;;;;;;;7.22;2.25;;;;;;;17.85;57.47;100968.97;4847807;29;20034;-81
2022/01/03 07:19:41;;;;;;;5.85;2.25;;;;;;;17.87;57.88;100969.84;4851212;29;20052;-77
2022/01/03 07:22:10;;;;;;;8.25;2.88;;;;;;;17.87;57.98;100962.03;4862716;29;20562;-77
2022/01/03 07:24:37;;;;;;;7.05;2.20;;;;;;;17.90;58.06;100968.97;4864089;29;20042;-80
2022/01/03 07:27:05;;;;;;;7.90;2.35;;;;;;;17.91;58.05;100964.63;4847345;29;20044;-79
2022/01/03 07:29:31;;;;;;;7.80;2.33;;;;;;;17.90;57.79;100976.78;4847511;29;20057;-80
2022/01/03 07:31:56;;;;;;;7.60;2.38;;;;;;;17.91;57.83;100975.03;4831957;29;20481;-81
2022/01/03 07:34:22;;;;;;;7.25;2.00;;;;;;;17.91;58.02;100978.50;4832469;29;20046;-82
2022/01/03 07:36:47;;;;;;;7.07;2.30;;;;;;;17.91;58.04;100983.69;4832678;29;20053;-81
2022/01/03 07:39:12;;;;;;;6.05;2.50;;;;;;;17.92;57.94;100984.56;4847064;29;20076;-82
2022/01/03 07:41:38;;;;;;;5.22;2.30;;;;;;;17.93;57.93;100987.16;4816661;29;20052;-82
2022/01/03 07:44:03;;;;;;;7.35;2.10;;;;;;;17.93;58.05;100986.31;4832127;29;20038;-80
2022/01/03 07:46:29;;;;;;;6.50;2.20;;;;;;;17.93;57.92;100984.56;4831749;29;20061;-80
2022/01/03 07:48:55;;;;;;;5.85;2.45;;;;;;;17.94;58.18;100982.81;4862635;29;20085;-81
2022/01/03 07:51:20;;;;;;;6.68;2.10;;;;;;;17.95;57.92;100992.38;4831917;29;20485;-82
2022/01/03 07:53:46;;;;;;;6.95;2.33;;;;;;;17.94;57.91;100985.41;4831662;29;20052;-80
2022/01/03 07:56:11;;;;;;;6.18;2.53;;;;;;;17.94;57.93;100990.63;4831595;29;20489;-81
2022/01/03 07:58:38;;;;;;;5.90;2.25;;;;;;;17.95;57.90;100995.81;4831546;29;20097;-81
2022/01/03 08:01:04;;;;;;;5.78;2.22;;;;;;;17.95;58.23;100988.00;4846313;29;20037;-77
2022/01/03 08:03:30;;;;;;;8.18;2.80;;;;;;;18.07;57.77;100993.13;4863247;29;20034;-77
2022/01/03 08:05:55;;;;;;;10.68;2.40;;;;;;;18.18;57.82;100987.81;4846637;29;20060;-76
2022/01/03 08:08:21;;;;;;;7.75;2.65;;;;;;;18.22;57.73;100984.28;4862105;29;20552;-78
2022/01/03 08:10:47;;;;;;;7.03;2.65;;;;;;;18.24;57.56;100992.94;4846573;29;20056;-79
2022/01/03 08:13:16;;;;;;;14.73;2.38;;;;;;;18.27;57.64;100989.47;4831422;29;20128;-79
2022/01/03 08:15:42;;;;;;;9.57;2.70;;;;;;;18.27;57.72;101005.09;4846453;29;20034;-83
2022/01/03 08:18:08;;;;;;;12.27;4.50;;;;;;;18.26;58.03;100982.50;4831181;29;20507;-78
2022/01/03 08:20:37;;;;;;;15.48;5.07;;;;;;;18.26;57.96;100991.19;4845899;29;20057;-79
2022/01/03 08:23:02;;;;;;;12.65;4.85;;;;;;;18.28;58.10;100988.56;4846049;29;20124;-74
2022/01/03 08:25:30;;;;;;;13.88;4.78;;;;;;;18.28;57.97;100989.44;4815996;29;20503;-78
2022/01/03 08:27:56;;;;;;;14.90;4.80;;;;;;;18.30;58.03;100990.28;4831357;29;20102;-78
2022/01/03 08:30:21;;;;;;;11.75;4.35;;;;;;;18.32;57.92;100985.06;4862831;29;20572;-76
2022/01/03 08:32:47;;;;;;;11.20;3.95;;;;;;;18.32;58.04;100995.47;4862815;29;20128;-79
2022/01/03 08:35:12;;;;;;;10.30;3.85;;;;;;;18.34;57.97;100996.34;4846154;29;20112;-77
2022/01/03 08:37:38;;;;;;;10.77;4.18;;;;;;;18.36;58.12;100997.19;4831077;29;20041;-78
2022/01/03 08:40:06;;;;;;;12.27;4.25;;;;;;;18.36;58.03;100993.72;4830883;29;20106;-79
2022/01/03 08:42:32;;;;;;;15.82;3.95;;;;;;;18.38;58.04;101002.34;4845703;29;20061;-78
2022/01/03 08:44:58;;;;;;;12.00;4.00;;;;;;;18.41;57.81;100998.00;4862666;29;20066;-78
2022/01/03 08:47:23;;;;;;;17.77;4.28;;;;;;;18.45;57.78;100994.47;4861181;29;20041;-81
2022/01/03 08:49:49;;;;;;;11.48;4.05;;;;;;;18.47;57.75;100995.31;4861493;29;20442;-77
2022/01/03 08:52:15;;;;;;;11.10;4.13;;;;;;;18.45;57.96;100994.47;4830715;29;20508;-77
2022/01/03 08:54:40;;;;;;;11.35;3.85;;;;;;;18.46;57.73;100987.50;4845942;29;20038;-77
2022/01/03 08:57:06;;;;;;;10.18;3.42;;;;;;;18.47;57.63;100986.66;4860848;29;20116;-79
2022/01/03 08:59:32;;;;;;;10.43;3.85;;;;;;;18.49;57.93;100987.50;4846001;29;20042;-77
2022/01/03 09:01:57;;;;;;;9.57;3.50;;;;;;;18.49;57.83;100988.34;4830627;29;20042;-77
2022/01/03 09:04:22;;;;;;;8.45;3.60;;;;;;;18.49;57.70;100985.75;4815272;29;20041;-76
2022/01/03 09:06:50;;;;;;;11.82;3.70;;;;;;;18.50;57.82;100986.59;4830675;29;20042;-77
2022/01/03 09:09:15;;;;;;;9.95;3.33;;;;;;;18.51;57.87;100985.75;4846054;29;20049;-79
2022/01/03 09:11:40;;;;;;;9.15;3.55;;;;;;;18.51;57.91;100998.78;4829960;29;20044;-78
2022/01/03 09:14:06;;;;;;;8.95;3.58;;;;;;;18.51;57.65;100990.94;4830361;29;20173;-77
2022/01/03 09:16:32;;;;;;;10.23;3.55;;;;;;;18.52;57.79;100992.66;4830394;29;20460;-78
2022/01/03 09:18:58;;;;;;;9.75;3.70;;;;;;;18.51;57.63;100980.53;4845311;29;20504;-79
2022/01/03 09:21:24;;;;;;;10.50;3.65;;;;;;;18.50;57.75;100982.25;4830367;29;20045;-79
2022/01/03 09:23:54;;;;;;;10.38;3.47;;;;;;;18.52;57.70;100974.41;4830412;29;20045;-78
2022/01/03 09:29:04;;;;;;;10.25;3.30;;;;;;;18.53;57.59;100977.88;4848442;29;20078;-77
2022/01/03 09:31:33;;;;;;;9.55;3.30;;;;;;;18.53;57.61;100968.34;4845672;29;20033;-78
2022/01/03 09:34:02;;;;;;;8.98;3.35;;;;;;;18.55;57.63;100970.91;4860714;29;20089;-78
2022/01/03 09:36:29;;;;;;;10.05;3.35;;;;;;;18.55;57.64;100976.13;4860348;29;20116;-78
2022/01/03 09:38:55;;;;;;;8.68;3.33;;;;;;;18.55;57.50;100971.75;4845182;29;20033;-79
2022/01/03 09:41:23;;;;;;;9.43;3.08;;;;;;;18.55;57.58;100960.47;4845082;29;20041;-76
2022/01/03 09:43:55;;;;;;;7.55;3.65;;;;;;;18.54;57.55;100964.00;4844900;29;20120;-75
2022/01/03 09:46:24;;;;;;;7.35;3.30;;;;;;;18.56;57.48;100957.03;4862025;29;20033;-76
2022/01/03 09:48:52;;;;;;;7.70;3.28;;;;;;;18.56;57.53;100951.81;4844796;29;20037;-78
2022/01/03 09:51:27;;;;;;;7.85;3.40;;;;;;;18.55;57.67;100963.94;4860141;29;20030;-77
2022/01/03 09:53:53;;;;;;;7.13;2.83;;;;;;;18.57;57.34;100966.53;4860186;29;20556;-76
2022/01/03 09:56:19;;;;;;;8.50;3.25;;;;;;;18.57;57.44;100962.19;4829765;29;20049;-76
2022/01/03 09:58:46;;;;;;;6.70;2.83;;;;;;;18.57;57.61;100963.94;4861236;29;20061;-76
2022/01/03 10:01:11;;;;;;;7.28;2.88;;;;;;;18.57;57.53;100964.78;4861693;29;20096;-76
2022/01/03 10:03:37;;;;;;;8.35;2.75;;;;;;;18.57;57.42;100954.38;4814589;29;20241;-76
2022/01/03 10:06:02;;;;;;;7.72;3.15;;;;;;;18.58;57.43;100960.47;4860700;29;20045;-75
2022/01/03 10:08:29;;;;;;;7.72;2.90;;;;;;;18.58;57.22;100963.94;4830004;29;20132;-76
2022/01/03 10:10:54;;;;;;;9.02;3.17;;;;;;;18.58;57.58;100956.09;4829794;29;20048;-77
2022/01/03 10:13:20;;;;;;;6.25;2.85;;;;;;;18.60;57.06;100969.13;4860765;29;20041;-76
2022/01/03 10:15:47;;;;;;;7.32;2.95;;;;;;;18.60;57.58;100959.56;4862214;29;20116;-78
2022/01/03 10:18:17;;;;;;;8.05;2.88;;;;;;;18.59;57.08;100965.63;4845009;29;20389;-77
2022/01/03 10:20:43;;;;;;;6.43;2.72;;;;;;;18.61;57.65;100973.44;4845344;29;20042;-79
2022/01/03 10:23:10;;;;;;;9.32;3.10;;;;;;;18.60;57.42;100967.38;4846799;29;20037;-79
2022/01/03 10:25:36;;;;;;;8.13;2.78;;;;;;;18.61;57.10;100969.09;4849759;29;20410;-78
2022/01/03 10:28:04;;;;;;;7.38;2.88;;;;;;;18.60;57.65;100958.72;4819154;29;20128;-77
2022/01/03 10:30:45;;;;;;;7.53;2.90;;;;;;;18.59;57.29;100957.81;4865019;29;20033;-77
2022/01/03 10:33:22;;;;;;;8.30;3.15;;;;;;;18.58;57.36;100956.09;4849423;29;20037;-78
2022/01/03 10:35:51;;;;;;;7.75;2.83;;;;;;;18.57;57.16;100956.97;4849189;29;20081;-77
2022/01/03 10:38:36;;;;;;;8.05;2.95;;;;;;;18.57;57.55;100943.09;4864556;29;20045;-79
2022/01/03 10:41:27;;;;;;;7.53;2.78;;;;;;;18.57;57.32;100950.91;4848364;29;20037;-76
2022/01/03 10:43:55;;;;;;;8.32;2.38;;;;;;;18.56;57.40;100947.44;4845867;29;20091;-76
2022/01/03 10:46:27;;;;;;;8.02;2.88;;;;;;;18.57;57.05;100943.09;4847845;29;20037;-77
2022/01/03 10:49:04;;;;;;;9.30;3.05;;;;;;;18.59;57.19;100943.94;4863135;29;20049;-75
2022/01/03 10:51:30;;;;;;;8.38;2.88;;;;;;;18.59;57.04;100942.19;4863962;29;20553;-75
2022/01/03 10:53:56;;;;;;;8.63;3.33;;;;;;;18.61;57.18;100940.44;4832367;29;20077;-76
2022/01/03 10:56:35;;;;;;;7.07;2.80;;;;;;;18.63;57.31;100941.28;4862830;29;20042;-76
2022/01/03 10:59:22;;;;;;;7.65;2.60;;;;;;;18.62;57.07;100939.56;4847882;29;20100;-75
2022/01/03 11:02:10;;;;;;;6.55;2.92;;;;;;;18.65;57.18;100925.63;4863026;29;20041;-75
2022/01/03 11:13:06;;;;;;;9.07;3.08;;;;;;;18.69;57.25;100930.78;4865062;29;20072;-76
2022/01/03 11:15:32;;;;;;;7.18;2.85;;;;;;;18.68;57.25;100926.47;4847788;29;20041;-76
2022/01/03 11:18:18;;;;;;;7.43;3.00;;;;;;;18.70;57.39;100913.38;4847451;29;20133;-76
2022/01/03 11:20:50;;;;;;;6.35;2.78;;;;;;;18.71;57.28;100912.50;4847791;29;20059;-76
2022/01/03 11:23:22;;;;;;;8.05;2.70;;;;;;;18.71;57.26;100915.13;4864647;29;20042;-75
2022/01/03 11:25:49;;;;;;;7.28;2.63;;;;;;;18.72;57.12;100916.84;4864036;29;20042;-75
2022/01/03 11:28:15;;;;;;;9.77;2.90;;;;;;;18.73;57.40;100909.88;4832383;29;20037;-75
2022/01/03 11:30:44;;;;;;;7.85;2.70;;;;;;;18.73;57.15;100892.50;4847680;29;20029;-75
2022/01/03 11:33:10;;;;;;;6.03;2.58;;;;;;;18.74;57.05;100911.59;4832467;29;20319;-75
2022/01/03 11:35:36;;;;;;;6.90;2.85;;;;;;;18.75;57.09;100890.75;4846810;29;20048;-77
2022/01/03 11:38:03;;;;;;;9.50;2.90;;;;;;;18.76;56.98;100887.25;4847696;29;20409;-76
2022/01/03 11:40:29;;;;;;;8.10;3.15;;;;;;;18.77;56.66;100891.59;4848212;29;20041;-76
2022/01/03 11:42:55;;;;;;;8.35;3.10;;;;;;;18.78;57.20;100890.72;4832605;29;20120;-75
2022/01/03 11:45:20;;;;;;;8.23;2.70;;;;;;;18.78;57.19;100882.91;4864163;29;20035;-74
2022/01/03 11:47:49;;;;;;;11.15;2.45;;;;;;;18.79;57.12;100878.53;4816844;29;20068;-77